Time;durP1;ratioP1;P1;durP2;ratioP2;P2;SDS_P1;SDS_P2;PMS_P1;PMS_P2;Temp;Humidity;BMP_temperature;BMP_pressure;BME280_temperature;BME280_humidity;BME280_pressure;Samples;Min_cycle;Max_cycle;Signal;HPM_P1;HPM_P2
2022/01/19 00:01:05;;;;;;;78.63;33.47;;;7.00;99.90;;;;;;4771338;30;20545;-85
2022/01/19 00:03:31;;;;;;;61.40;27.67;;;5.50;99.90;;;;;;4764190;30;20050;-85
2022/01/19 00:05:57;;;;;;;70.30;32.88;;;6.10;99.90;;;;;;4766861;30;20135;-85
2022/01/19 00:08:23;;;;;;;58.55;27.23;;;5.70;99.90;;;;;;4764041;30;20138;-84
2022/01/19 00:10:50;;;;;;;73.85;32.92;;;4.80;99.90;;;;;;4764481;30;20045;-85
2022/01/19 00:13:17;;;;;;;60.28;29.70;;;7.30;99.90;;;;;;4771704;30;20116;-85
2022/01/19 00:15:43;;;;;;;65.72;29.55;;;7.30;99.90;;;;;;4768612;30;20451;-84
2022/01/19 00:18:09;;;;;;;60.83;28.25;;;6.40;99.90;;;;;;4766960;30;20089;-85
2022/01/19 00:20:35;;;;;;;61.35;26.42;;;5.70;99.90;;;;;;4770458;30;20039;-84
2022/01/19 00:23:03;;;;;;;56.17;26.88;;;7.00;99.90;;;;;;4771473;30;20062;-84
2022/01/19 00:25:29;;;;;;;45.72;22.05;;;6.00;99.90;;;;;;4770527;30;20062;-84
2022/01/19 00:27:55;;;;;;;60.47;24.98;;;4.80;99.90;;;;;;4770798;30;20054;-84
2022/01/19 00:30:21;;;;;;;44.22;21.08;;;6.60;99.90;;;;;;4756123;30;20040;-84
2022/01/19 00:32:47;;;;;;;46.03;17.95;;;4.70;99.90;;;;;;4768416;30;20083;-84
2022/01/19 00:35:13;;;;;;;51.40;21.50;;;4.30;99.90;;;;;;4756346;30;20090;-84
2022/01/19 00:37:40;;;;;;;51.75;22.33;;;6.20;99.90;;;;;;4766610;30;20113;-84
2022/01/19 00:40:08;;;;;;;80.00;31.98;;;7.20;99.90;;;;;;4769398;30;20054;-85
2022/01/19 00:42:34;;;;;;;46.97;21.95;;;7.30;99.90;;;;;;4780884;30;20130;-84
2022/01/19 00:44:59;;;;;;;59.70;22.02;;;5.80;99.90;;;;;;4767418;30;20126;-84
2022/01/19 00:47:25;;;;;;;56.70;25.48;;;7.00;99.90;;;;;;4766194;30;20197;-84
2022/01/19 00:49:51;;;;;;;74.75;31.67;;;6.90;99.90;;;;;;4759039;30;20052;-84
2022/01/19 00:52:16;;;;;;;39.15;18.85;;;5.50;99.90;;;;;;4770891;30;20413;-84
2022/01/19 00:54:42;;;;;;;57.85;24.95;;;5.60;99.90;;;;;;4768301;30;20213;-84
2022/01/19 00:57:09;;;;;;;59.20;26.20;;;6.50;99.90;;;;;;4766674;30;20044;-84
2022/01/19 00:59:35;;;;;;;43.58;20.55;;;5.20;99.90;;;;;;4754439;30;20052;-84
2022/01/19 01:02:02;;;;;;;65.18;26.27;;;7.00;99.90;;;;;;4784290;30;20043;-84
2022/01/19 01:04:28;;;;;;;65.43;27.23;;;7.00;99.90;;;;;;4766604;30;20136;-84
2022/01/19 01:06:54;;;;;;;65.55;25.90;;;5.30;99.90;;;;;;4786156;30;20409;-84
2022/01/19 01:09:20;;;;;;;59.35;27.40;;;8.30;99.90;;;;;;4770883;30;20056;-84
2022/01/19 01:11:57;;;;;;;65.53;32.65;;;7.00;99.90;;;;;;4769103;30;20139;-84
2022/01/19 01:17:12;;;;;;;36.50;18.92;;;6.80;99.90;;;;;;4766504;30;20066;-84
2022/01/19 01:19:38;;;;;;;42.05;17.20;;;6.90;99.90;;;;;;4769827;30;20044;-84
2022/01/19 01:22:04;;;;;;;38.40;19.30;;;6.90;99.90;;;;;;4767652;30;20051;-84
2022/01/19 01:24:30;;;;;;;55.47;21.25;;;5.70;99.90;;;;;;4760107;30;20079;-84
2022/01/19 01:26:56;;;;;;;41.47;18.92;;;7.20;99.90;;;;;;4766157;30;20098;-84
2022/01/19 01:29:27;;;;;;;37.80;16.30;;;7.10;99.90;;;;;;4766667;30;20497;-84
2022/01/19 01:31:53;;;;;;;34.03;18.70;;;6.70;99.90;;;;;;4770397;30;20052;-84
2022/01/19 01:34:18;;;;;;;34.97;17.83;;;7.00;99.90;;;;;;4792094;24;20422;-88
2022/01/19 01:36:44;;;;;;;35.55;19.38;;;7.20;99.90;;;;;;4784291;30;20116;-87
2022/01/19 01:39:10;;;;;;;39.30;19.77;;;4.50;99.90;;;;;;4781233;30;20130;-87
2022/01/19 01:41:35;;;;;;;29.75;15.38;;;5.60;99.90;;;;;;4782385;29;20050;-87
2022/01/19 01:44:01;;;;;;;45.03;20.13;;;6.70;99.90;;;;;;4782698;29;20412;-87
2022/01/19 01:46:44;;;;;;;43.38;18.92;;;6.10;99.90;;;;;;4792001;29;20165;-87
2022/01/19 01:49:16;;;;;;;42.67;20.67;;;8.40;99.90;;;;;;4776992;29;20043;-87
2022/01/19 01:54:26;;;;;;;57.17;23.58;;;6.70;99.90;;;;;;4782168;29;20122;-87
2022/01/19 01:56:53;;;;;;;39.72;22.15;;;6.80;99.90;;;;;;4781563;29;20488;-87
2022/01/19 01:59:19;;;;;;;50.20;23.42;;;5.20;99.90;;;;;;4782962;29;20389;-87
2022/01/19 02:01:45;;;;;;;76.20;33.28;;;4.10;99.90;;;;;;4782623;30;20050;-87
2022/01/19 02:04:11;;;;;;;42.95;21.92;;;6.60;99.90;;;;;;4782168;30;20122;-87
2022/01/19 02:09:34;;;;;;;46.58;24.42;;;3.70;99.90;;;;;;4780756;30;20504;-87
2022/01/19 02:23:11;;;;;;;57.13;21.83;;;3.30;99.90;;;;;;4780119;29;20093;-87
2022/01/19 02:25:42;;;;;;;36.08;17.40;;;3.50;99.90;;;;;;4783924;30;20039;-87
2022/01/19 02:41:30;;;;;;;50.00;20.08;;;3.80;99.90;;;;;;4786987;30;20063;-87
2022/01/19 02:43:57;;;;;;;66.32;23.02;;;8.30;99.90;;;;;;4786455;30;20051;-87
2022/01/19 02:46:42;;;;;;;76.10;23.17;;;5.70;99.90;;;;;;4798104;29;20134;-87
2022/01/19 02:49:17;;;;;;;56.25;20.13;;;6.20;99.90;;;;;;4785645;30;20052;-88
2022/01/19 02:51:44;;;;;;;83.85;23.00;;;7.10;99.90;;;;;;4771107;30;20035;-87
2022/01/19 02:54:12;;;;;;;73.50;23.77;;;8.00;99.90;;;;;;4786264;30;20047;-88
2022/01/19 02:56:40;;;;;;;125.43;28.08;;;3.80;99.90;;;;;;4785386;30;20462;-87
2022/01/19 02:59:20;;;;;;;122.18;28.88;;;3.90;99.90;;;;;;4775094;30;20053;-87
2022/01/19 03:09:43;;;;;;;74.22;22.77;;;6.10;99.90;;;;;;4786864;30;20090;-87
2022/01/19 03:12:09;;;;;;;61.95;22.85;;;3.30;99.90;;;;;;4801574;29;20520;-87
2022/01/19 03:14:35;;;;;;;68.03;23.35;;;6.20;99.90;;;;;;4785892;30;20093;-88
2022/01/19 03:17:00;;;;;;;98.50;27.48;;;7.00;99.90;;;;;;4781663;30;20087;-87
2022/01/19 03:19:28;;;;;;;95.10;25.50;;;2.70;99.90;;;;;;4785049;30;20044;-87
2022/01/19 03:21:54;;;;;;;119.78;30.55;;;5.20;99.90;;;;;;4782036;30;20099;-87
2022/01/19 03:24:20;;;;;;;389.90;45.13;;;4.50;99.90;;;;;;4786375;30;20498;-87
2022/01/19 03:26:46;;;;;;;122.85;31.75;;;5.90;99.90;;;;;;4786051;30;20112;-87
2022/01/19 03:29:12;;;;;;;193.68;40.05;;;4.80;99.90;;;;;;4778517;30;20043;-87
2022/01/19 03:31:37;;;;;;;218.20;46.05;;;7.10;99.90;;;;;;4778637;30;20074;-87
2022/01/19 03:34:05;;;;;;;184.13;40.00;;;5.00;99.90;;;;;;4777733;30;20063;-87
2022/01/19 03:36:31;;;;;;;176.07;35.20;;;4.10;99.90;;;;;;4785577;30;20059;-87
2022/01/19 03:38:56;;;;;;;130.18;33.28;;;4.70;99.90;;;;;;4764814;30;20048;-87
2022/01/19 03:41:22;;;;;;;115.20;31.33;;;7.10;99.90;;;;;;4774542;30;20134;-87
2022/01/19 03:43:48;;;;;;;72.30;22.38;;;6.20;99.90;;;;;;4778500;30;20051;-87
2022/01/19 03:46:15;;;;;;;77.97;25.52;;;7.10;99.90;;;;;;4786475;30;20153;-87
2022/01/19 03:48:52;;;;;;;55.13;22.90;;;6.70;99.90;;;;;;4786538;30;20051;-87
2022/01/19 03:51:18;;;;;;;123.13;37.13;;;6.90;99.90;;;;;;4800631;29;20066;-87
2022/01/19 03:53:44;;;;;;;98.68;28.83;;;5.30;99.90;;;;;;4800506;29;20051;-87
2022/01/19 03:56:09;;;;;;;76.75;25.65;;;6.40;99.90;;;;;;4785484;30;20197;-87
2022/01/19 03:58:36;;;;;;;86.57;27.50;;;4.10;99.90;;;;;;4797169;29;20056;-87
2022/01/19 04:01:03;;;;;;;127.70;32.92;;;4.50;99.90;;;;;;4770703;30;20377;-87
2022/01/19 04:06:15;;;;;;;123.78;33.00;;;8.60;99.90;;;;;;4786003;30;20097;-87
2022/01/19 04:08:41;;;;;;;136.07;32.70;;;5.70;99.90;;;;;;4785440;30;20051;-87
2022/01/19 04:11:06;;;;;;;78.43;23.92;;;6.30;99.90;;;;;;4785870;30;20058;-89
2022/01/19 04:13:44;;;;;;;112.03;32.65;;;6.90;99.90;;;;;;4785784;30;20073;-87
2022/01/19 04:16:10;;;;;;;67.65;22.13;;;6.80;99.90;;;;;;4786798;29;20112;-87
2022/01/19 04:18:36;;;;;;;114.05;33.60;;;7.70;99.90;;;;;;4788928;30;20060;-87
2022/01/19 04:21:03;;;;;;;114.68;31.40;;;6.40;99.90;;;;;;4809576;29;20051;-87
2022/01/19 04:23:29;;;;;;;100.60;33.95;;;5.70;99.90;;;;;;4803400;29;20043;-87
2022/01/19 04:25:54;;;;;;;129.40;35.85;;;5.00;99.90;;;;;;4788892;30;20120;-87
2022/01/19 04:28:20;;;;;;;112.72;34.22;;;5.50;99.90;;;;;;4788591;30;20051;-87
2022/01/19 04:30:46;;;;;;;124.65;35.75;;;4.10;99.90;;;;;;4789096;30;20138;-87
2022/01/19 04:33:16;;;;;;;94.93;30.08;;;5.70;99.90;;;;;;4808723;29;20054;-87
2022/01/19 04:35:46;;;;;;;87.07;28.23;;;6.60;99.90;;;;;;4805054;29;20138;-87
2022/01/19 05:02:26;;;;;;;99.72;27.50;;;7.90;99.90;;;;;;4774426;30;20470;-87
2022/01/19 05:07:22;;;;;;;112.85;34.72;;;6.80;99.90;;;;;;4783506;30;20055;-86
2022/01/19 05:15:06;;;;;;;106.15;33.13;;;5.40;99.90;;;;;;4785416;30;20069;-87
2022/01/19 05:17:32;;;;;;;115.45;32.90;;;4.30;99.90;;;;;;4791709;29;20442;-87
2022/01/19 05:19:58;;;;;;;117.28;38.05;;;8.60;99.90;;;;;;4785313;30;20055;-87
2022/01/19 05:22:24;;;;;;;106.35;34.28;;;5.50;99.90;;;;;;4785764;30;20112;-88
2022/01/19 05:24:51;;;;;;;94.00;31.33;;;5.90;99.90;;;;;;4802673;29;20466;-87
2022/01/19 05:27:19;;;;;;;117.97;38.20;;;6.40;99.90;;;;;;4796600;29;20056;-87
2022/01/19 05:29:45;;;;;;;118.57;35.25;;;8.50;99.90;;;;;;4787664;30;20532;-87
2022/01/19 05:32:11;;;;;;;126.63;38.45;;;4.30;99.90;;;;;;4788078;30;20158;-88
2022/01/19 05:34:37;;;;;;;109.20;33.92;;;4.80;99.90;;;;;;4775586;30;20197;-87
2022/01/19 05:37:04;;;;;;;96.53;31.70;;;8.50;99.90;;;;;;4782667;29;20044;-87
2022/01/19 05:39:29;;;;;;;105.90;36.42;;;6.60;99.90;;;;;;4786597;30;20043;-87
2022/01/19 05:41:55;;;;;;;119.90;35.95;;;6.40;99.90;;;;;;4787442;29;20419;-87
2022/01/19 05:44:21;;;;;;;78.93;28.73;;;5.50;99.90;;;;;;4780793;30;20511;-87
2022/01/19 05:46:46;;;;;;;75.25;27.42;;;4.60;99.90;;;;;;4786911;30;21523;-87
2022/01/19 05:49:12;;;;;;;77.47;26.23;;;4.20;99.90;;;;;;4802033;29;20055;-88
2022/01/19 05:51:38;;;;;;;85.85;28.13;;;6.00;99.90;;;;;;4786648;30;20122;-87
2022/01/19 05:54:03;;;;;;;894.90;64.32;;;3.80;99.90;;;;;;4771927;30;20500;-87
2022/01/19 05:56:29;;;;;;;133.27;40.28;;;6.50;99.90;;;;;;4786532;30;20044;-87
2022/01/19 05:58:55;;;;;;;83.88;29.50;;;8.60;99.90;;;;;;4783924;30;20039;-87
2022/01/19 06:01:20;;;;;;;90.18;31.83;;;5.80;99.90;;;;;;4785986;30;20047;-87
2022/01/19 06:03:46;;;;;;;92.55;31.55;;;7.10;99.90;;;;;;4776519;30;21606;-87
2022/01/19 06:06:12;;;;;;;94.43;31.20;;;8.60;99.90;;;;;;4785931;30;20051;-87
2022/01/19 06:08:44;;;;;;;115.70;36.50;;;7.10;99.90;;;;;;4801573;29;20055;-87
2022/01/19 06:11:11;;;;;;;115.45;37.95;;;6.70;99.90;;;;;;4787368;30;20047;-87
2022/01/19 06:13:37;;;;;;;119.97;37.55;;;7.10;99.90;;;;;;4786808;30;20055;-87
2022/01/19 06:16:04;;;;;;;71.93;25.60;;;6.70;99.90;;;;;;4786753;30;20544;-87
2022/01/19 06:18:30;;;;;;;93.75;31.83;;;4.40;99.90;;;;;;4786213;30;20122;-87
2022/01/19 06:20:56;;;;;;;117.57;35.42;;;6.30;99.90;;;;;;4775394;30;20047;-87
2022/01/19 06:23:22;;;;;;;103.30;33.25;;;4.50;99.90;;;;;;4782945;30;20051;-87
2022/01/19 06:25:48;;;;;;;130.35;38.75;;;7.10;99.90;;;;;;4779818;30;20086;-87
2022/01/19 06:28:14;;;;;;;66.13;25.27;;;5.30;99.90;;;;;;4783052;30;20071;-87
2022/01/19 06:30:40;;;;;;;123.78;39.60;;;6.40;99.90;;;;;;4786653;30;20105;-87
2022/01/19 06:33:06;;;;;;;91.25;32.20;;;6.20;99.90;;;;;;4785830;30;20047;-87
2022/01/19 06:35:32;;;;;;;104.55;34.65;;;5.50;99.90;;;;;;4783897;30;20082;-87
2022/01/19 06:37:58;;;;;;;93.32;30.33;;;6.90;99.90;;;;;;4765416;29;20103;-88
2022/01/19 06:40:27;;;;;;;93.72;30.73;;;8.00;99.90;;;;;;4782564;30;20150;-87
2022/01/19 06:42:54;;;;;;;130.32;37.55;;;4.60;99.90;;;;;;4782975;30;20048;-87
2022/01/19 06:45:22;;;;;;;98.28;30.75;;;6.00;99.90;;;;;;4771548;30;20529;-87
2022/01/19 06:47:48;;;;;;;78.13;27.90;;;6.10;99.90;;;;;;4786589;30;20040;-87
2022/01/19 06:50:18;;;;;;;115.95;36.20;;;6.20;99.90;;;;;;4786825;30;20047;-88
2022/01/19 06:52:45;;;;;;;111.55;34.38;;;5.20;99.90;;;;;;4784153;30;20059;-88
2022/01/19 06:55:11;;;;;;;89.45;30.17;;;5.70;99.90;;;;;;4783306;30;20483;-88
2022/01/19 06:57:37;;;;;;;108.90;32.92;;;5.00;99.90;;;;;;4785463;30;20157;-88
2022/01/19 07:00:06;;;;;;;83.30;28.35;;;8.00;99.90;;;;;;4782294;30;20142;-87
2022/01/19 07:02:31;;;;;;;113.22;36.45;;;5.20;99.90;;;;;;4787862;29;20061;-88
2022/01/19 07:04:57;;;;;;;106.18;35.85;;;7.30;99.90;;;;;;4786494;30;20047;-88
2022/01/19 07:07:23;;;;;;;107.82;37.05;;;6.60;99.90;;;;;;4783536;30;20100;-87
2022/01/19 07:09:50;;;;;;;76.05;27.55;;;6.40;99.90;;;;;;4796537;29;20035;-87
2022/01/19 07:12:16;;;;;;;74.05;27.27;;;7.30;99.90;;;;;;4771139;30;20115;-87
2022/01/19 07:14:42;;;;;;;73.72;29.17;;;7.80;99.90;;;;;;4778219;30;20052;-88
2022/01/19 07:17:08;;;;;;;72.55;28.55;;;6.80;99.90;;;;;;4786476;29;20412;-89
2022/01/19 07:19:34;;;;;;;66.82;27.50;;;5.40;99.90;;;;;;4786260;30;20523;-90
2022/01/19 07:21:59;;;;;;;78.10;30.02;;;7.50;99.90;;;;;;4771140;30;20055;-89
2022/01/19 07:24:25;;;;;;;79.40;29.88;;;7.70;99.90;;;;;;4771352;30;20100;-91
2022/01/19 07:26:51;;;;;;;65.82;25.90;;;5.50;99.90;;;;;;4786448;30;20056;-91
2022/01/19 07:29:17;;;;;;;68.50;24.42;;;8.90;99.90;;;;;;4783362;30;20589;-90
2022/01/19 07:31:42;;;;;;;90.97;35.17;;;7.00;99.90;;;;;;4784321;30;20421;-92
2022/01/19 07:34:09;;;;;;;58.22;23.63;;;7.60;99.90;;;;;;4778541;30;20063;-89
2022/01/19 07:36:35;;;;;;;68.32;27.05;;;5.60;99.90;;;;;;4783331;30;20051;-89
2022/01/19 07:39:02;;;;;;;50.15;21.98;;;6.60;99.90;;;;;;4771806;29;20043;-90
2022/01/19 07:41:28;;;;;;;93.50;33.42;;;6.70;99.90;;;;;;4782639;29;20063;-89
2022/01/19 07:43:53;;;;;;;88.53;32.22;;;7.20;99.90;;;;;;4775979;30;20051;-90
2022/01/19 07:46:19;;;;;;;43.17;20.90;;;4.40;99.90;;;;;;4788130;29;20050;-91
2022/01/19 07:48:45;;;;;;;51.85;20.13;;;5.90;99.90;;;;;;4771902;30;20100;-88
2022/01/19 07:51:11;;;;;;;72.05;26.05;;;5.00;99.90;;;;;;4795861;29;20054;-91
2022/01/19 07:53:38;;;;;;;87.25;32.60;;;6.90;99.90;;;;;;4784220;30;20048;-92
2022/01/19 07:56:04;;;;;;;63.85;26.83;;;5.60;99.90;;;;;;4809404;29;20150;-87
2022/01/19 07:58:30;;;;;;;52.55;23.20;;;5.40;99.90;;;;;;4787695;30;20048;-90
2022/01/19 08:00:56;;;;;;;54.05;21.88;;;6.20;99.90;;;;;;4788575;30;20062;-89
2022/01/19 08:03:22;;;;;;;52.78;22.05;;;5.80;99.90;;;;;;4788094;30;20051;-87
2022/01/19 08:05:48;;;;;;;59.80;23.25;;;6.80;99.90;;;;;;4771350;30;20051;-88
2022/01/19 08:08:15;;;;;;;50.60;20.88;;;7.80;99.90;;;;;;4788513;30;20449;-89
2022/01/19 08:10:42;;;;;;;60.47;24.67;;;7.40;99.90;;;;;;4773627;30;20059;-86
2022/01/19 08:13:09;;;;;;;64.13;26.30;;;6.30;99.90;;;;;;4787787;29;20057;-87
2022/01/19 08:15:35;;;;;;;80.88;29.20;;;7.20;99.90;;;;;;4789940;29;20051;-88
2022/01/19 08:18:01;;;;;;;101.68;37.28;;;7.30;99.90;;;;;;4790299;29;20397;-88
2022/01/19 08:20:27;;;;;;;68.82;28.40;;;7.00;99.90;;;;;;4790359;29;20099;-83
2022/01/19 08:22:53;;;;;;;85.40;31.13;;;6.80;99.90;;;;;;4788256;29;20043;-91
2022/01/19 08:25:18;;;;;;;83.93;28.92;;;7.40;99.90;;;;;;4773955;29;20131;-87
2022/01/19 08:27:45;;;;;;;71.72;28.23;;;8.70;99.90;;;;;;4785748;29;20043;-88
2022/01/19 08:30:12;;;;;;;63.90;25.90;;;5.60;99.90;;;;;;4773065;30;20058;-88
2022/01/19 08:32:38;;;;;;;68.72;28.67;;;8.10;99.90;;;;;;4790024;29;20047;-88
2022/01/19 08:35:05;;;;;;;54.83;24.48;;;5.80;99.90;;;;;;4788344;30;20099;-88
2022/01/19 08:37:31;;;;;;;53.72;24.90;;;5.70;99.90;;;;;;4786129;30;20496;-88
2022/01/19 08:39:58;;;;;;;61.22;25.83;;;6.60;99.90;;;;;;4787373;30;20062;-84
2022/01/19 08:42:24;;;;;;;53.70;22.55;;;7.40;99.90;;;;;;4788623;30;20055;-89
2022/01/19 08:44:49;;;;;;;58.15;25.15;;;8.20;99.90;;;;;;4786657;30;20044;-88
2022/01/19 08:47:15;;;;;;;60.15;25.35;;;6.10;99.90;;;;;;4788445;29;20047;-86
2022/01/19 08:49:41;;;;;;;60.15;27.83;;;8.40;99.90;;;;;;4787883;30;20471;-89
2022/01/19 08:52:07;;;;;;;44.03;20.60;;;5.40;99.90;;;;;;4789839;29;20056;-89
2022/01/19 08:54:34;;;;;;;36.47;20.10;;;7.30;99.90;;;;;;4809316;29;20057;-86
2022/01/19 08:57:01;;;;;;;52.63;22.33;;;9.10;99.90;;;;;;4786498;30;20063;-87
2022/01/19 08:59:28;;;;;;;50.90;21.70;;;8.10;99.90;;;;;;4787216;30;20062;-88
2022/01/19 09:01:54;;;;;;;50.97;24.15;;;7.50;99.90;;;;;;4787022;29;20116;-88
2022/01/19 09:04:20;;;;;;;55.67;22.90;;;7.30;99.90;;;;;;4772800;30;20126;-86
2022/01/19 09:06:46;;;;;;;62.38;26.52;;;7.80;99.90;;;;;;4787295;29;20135;-89
2022/01/19 09:09:12;;;;;;;45.28;21.30;;;5.50;99.90;;;;;;4786464;30;20105;-88
2022/01/19 09:11:38;;;;;;;39.47;21.27;;;5.60;99.90;;;;;;4772605;30;20458;-88
2022/01/19 09:14:06;;;;;;;45.17;21.90;;;6.90;99.90;;;;;;4786836;30;20059;-88
2022/01/19 09:16:34;;;;;;;44.22;23.95;;;5.90;99.90;;;;;;4805808;29;20083;-88
2022/01/19 09:19:02;;;;;;;39.38;22.35;;;7.10;99.90;;;;;;4783842;30;20051;-90
2022/01/19 09:21:29;;;;;;;66.30;28.63;;;6.70;99.90;;;;;;4797917;29;20117;-89
2022/01/19 09:23:54;;;;;;;58.40;23.63;;;6.70;99.90;;;;;;4780545;29;20094;-88
2022/01/19 09:26:20;;;;;;;61.97;26.77;;;5.30;99.90;;;;;;4787318;29;20075;-88
2022/01/19 09:28:46;;;;;;;69.85;30.80;;;6.10;99.90;;;;;;4787180;30;20036;-88
2022/01/19 09:31:15;;;;;;;67.60;29.48;;;6.50;99.90;;;;;;4773110;30;20408;-90
2022/01/19 09:33:43;;;;;;;69.70;25.40;;;6.90;99.90;;;;;;4786443;29;20061;-88
2022/01/19 09:36:32;;;;;;;74.13;33.90;;;5.90;99.90;;;;;;4785869;30;20051;-89
2022/01/19 09:38:56;;;;;;;56.90;26.88;;;6.80;99.90;;;;;;4786788;30;20063;-90
2022/01/19 09:41:22;;;;;;;53.85;26.67;;;7.90;99.90;;;;;;4790538;29;20046;-88
2022/01/19 09:43:48;;;;;;;57.92;25.73;;;6.50;99.90;;;;;;4786473;29;20797;-88
2022/01/19 09:46:14;;;;;;;63.70;29.05;;;7.80;99.90;;;;;;4783526;30;20424;-89
2022/01/19 09:48:40;;;;;;;52.72;25.02;;;4.90;99.90;;;;;;4784979;29;20047;-89
2022/01/19 09:51:06;;;;;;;55.83;26.33;;;6.70;99.90;;;;;;4786514;30;20258;-89
2022/01/19 09:53:32;;;;;;;64.20;27.38;;;8.30;99.90;;;;;;4783316;29;20051;-89
2022/01/19 09:55:58;;;;;;;81.20;34.47;;;6.80;99.90;;;;;;4784448;30;20070;-89
2022/01/19 09:58:24;;;;;;;65.30;28.48;;;6.60;99.90;;;;;;4785266;30;20047;-88
2022/01/19 10:00:51;;;;;;;76.50;34.42;;;6.80;99.90;;;;;;4799451;29;20051;-88
2022/01/19 10:03:19;;;;;;;66.20;27.05;;;8.70;99.90;;;;;;4782635;29;20115;-88
2022/01/19 10:06:07;;;;;;;61.53;27.88;;;7.00;99.90;;;;;;4799023;29;20051;-87
2022/01/19 10:08:41;;;;;;;49.10;21.55;;;7.00;99.90;;;;;;4776331;29;20125;-89
2022/01/19 10:11:15;;;;;;;36.40;14.80;;;6.50;99.90;;;;;;4781877;30;20086;-88
2022/01/19 10:19:20;;;;;;;24.45;7.68;;;7.80;99.90;;;;;;4783915;30;20053;-88
2022/01/19 10:21:58;;;;;;;25.15;7.03;;;6.80;99.90;;;;;;4783738;30;20051;-91
2022/01/19 10:24:51;;;;;;;16.83;5.55;;;9.10;99.90;;;;;;4801108;29;20058;-89
2022/01/19 10:27:22;;;;;;;27.00;7.00;;;7.20;99.90;;;;;;4805484;29;20087;-90
2022/01/19 10:29:51;;;;;;;20.17;7.07;;;7.10;99.90;;;;;;4785937;30;20047;-86
2022/01/19 10:32:22;;;;;;;25.38;7.10;;;8.00;99.90;;;;;;4785742;30;20058;-89
2022/01/19 10:34:49;;;;;;;20.85;6.25;;;7.60;99.90;;;;;;4779357;30;20062;-89
2022/01/19 10:37:22;;;;;;;23.13;7.15;;;6.70;99.90;;;;;;4783945;30;20512;-89
2022/01/19 10:39:50;;;;;;;25.02;6.90;;;7.20;99.90;;;;;;4781853;30;20456;-90
2022/01/19 10:42:17;;;;;;;22.30;6.40;;;8.30;99.90;;;;;;4766732;30;20047;-88
2022/01/19 10:44:52;;;;;;;16.38;5.85;;;9.70;99.90;;;;;;4786790;30;20412;-89
2022/01/19 10:47:36;;;;;;;23.52;6.55;;;8.40;99.90;;;;;;4786583;30;21750;-88
2022/01/19 10:50:02;;;;;;;24.52;5.50;;;7.60;99.90;;;;;;4784053;30;20063;-85
2022/01/19 10:52:30;;;;;;;16.17;5.47;;;7.60;99.90;;;;;;4787297;29;20066;-88
2022/01/19 10:54:57;;;;;;;17.30;5.78;;;8.90;99.90;;;;;;4772050;30;20086;-91
2022/01/19 10:57:25;;;;;;;16.95;5.47;;;8.90;99.90;;;;;;4782818;30;20504;-88
2022/01/19 10:59:51;;;;;;;23.30;6.88;;;7.70;99.90;;;;;;4771060;30;20085;-88
2022/01/19 11:02:25;;;;;;;19.77;6.53;;;7.80;99.90;;;;;;4781751;30;20488;-90
2022/01/19 11:04:51;;;;;;;27.42;7.68;;;7.80;99.90;;;;;;4784601;30;20058;-89
2022/01/19 11:07:19;;;;;;;15.82;5.40;;;9.00;99.90;;;;;;4786678;30;20134;-91
2022/01/19 11:09:56;;;;;;;14.95;4.88;;;7.40;99.90;;;;;;4786534;30;20465;-90
2022/01/19 11:12:24;;;;;;;15.27;5.75;;;7.30;99.90;;;;;;4772042;30;20047;-89
2022/01/19 11:14:50;;;;;;;14.52;5.43;;;8.60;99.90;;;;;;4786279;29;20052;-90
2022/01/19 11:17:16;;;;;;;27.50;5.80;;;5.30;99.90;;;;;;4784690;30;20054;-90
2022/01/19 11:19:44;;;;;;;24.10;6.18;;;6.80;99.90;;;;;;4787380;29;20078;-90
2022/01/19 11:22:39;;;;;;;20.35;7.15;;;7.20;99.90;;;;;;4786890;30;20124;-90
2022/01/19 11:25:20;;;;;;;13.05;5.30;;;7.20;99.90;;;;;;4770073;30;20122;-90
2022/01/19 11:27:47;;;;;;;21.63;7.05;;;7.20;99.90;;;;;;4775151;30;20043;-91
2022/01/19 11:30:18;;;;;;;18.83;6.05;;;6.90;99.90;;;;;;4773902;30;20142;-91
2022/01/19 11:33:14;;;;;;;22.25;6.13;;;8.40;99.90;;;;;;4787683;30;20703;-90
2022/01/19 11:35:44;;;;;;;25.37;7.80;;;6.70;99.90;;;;;;4787151;30;20057;-90
2022/01/19 11:38:34;;;;;;;27.27;7.45;;;8.80;99.90;;;;;;4789515;30;20365;-90
2022/01/19 11:41:36;;;;;;;22.50;6.93;;;7.20;99.90;;;;;;4775419;30;20120;-90
2022/01/19 11:44:02;;;;;;;22.38;6.95;;;7.40;99.90;;;;;;4790115;30;20412;-90
2022/01/19 11:46:31;;;;;;;22.50;5.85;;;7.80;99.90;;;;;;4774108;30;20201;-90
2022/01/19 11:49:04;;;;;;;19.52;5.45;;;7.00;99.90;;;;;;4790879;30;20066;-89
2022/01/19 11:51:35;;;;;;;12.15;4.88;;;6.90;99.90;;;;;;4790850;29;20051;-88
2022/01/19 11:54:02;;;;;;;30.00;6.15;;;7.30;99.90;;;;;;4775067;30;20504;-90
2022/01/19 11:56:29;;;;;;;26.30;6.43;;;7.60;99.90;;;;;;4801850;29;20134;-92
2022/01/19 11:59:12;;;;;;;22.90;6.72;;;7.50;99.90;;;;;;4772086;30;20062;-91
2022/01/19 12:01:37;;;;;;;27.38;6.93;;;7.00;99.90;;;;;;4786098;30;20511;-91
2022/01/19 12:04:19;;;;;;;26.90;6.63;;;7.50;99.90;;;;;;4789909;29;20051;-86
2022/01/19 12:06:46;;;;;;;24.75;6.38;;;7.00;99.90;;;;;;4772571;30;20055;-90
2022/01/19 12:09:15;;;;;;;19.10;5.70;;;8.40;99.90;;;;;;4773334;30;20047;-87
2022/01/19 12:11:49;;;;;;;19.35;5.60;;;7.70;99.90;;;;;;4788885;29;20138;-88
2022/01/19 12:14:28;;;;;;;26.35;5.53;;;7.00;99.90;;;;;;4788760;29;20070;-87
2022/01/19 12:17:08;;;;;;;18.88;6.15;;;7.30;99.90;;;;;;4790873;29;20091;-91
2022/01/19 12:19:41;;;;;;;24.00;6.13;;;7.60;99.90;;;;;;4789495;29;20184;-87
2022/01/19 12:22:20;;;;;;;35.03;6.90;;;7.80;99.90;;;;;;4774389;30;20051;-86
2022/01/19 12:24:58;;;;;;;17.85;5.40;;;8.60;99.90;;;;;;4786075;30;20523;-90
2022/01/19 12:27:33;;;;;;;18.80;5.18;;;7.50;99.90;;;;;;4788785;30;20070;-87
2022/01/19 12:30:01;;;;;;;22.88;5.18;;;8.90;99.90;;;;;;4788118;29;20047;-89
2022/01/19 12:32:27;;;;;;;13.93;4.97;;;8.60;99.90;;;;;;4789417;30;20105;-88
2022/01/19 12:34:56;;;;;;;22.70;5.97;;;8.30;99.90;;;;;;4788126;29;20148;-87
2022/01/19 12:37:26;;;;;;;30.63;6.18;;;8.60;99.90;;;;;;4788042;29;20043;-87
2022/01/19 12:39:52;;;;;;;19.00;6.03;;;7.40;99.90;;;;;;4773239;30;20138;-87
2022/01/19 12:42:24;;;;;;;24.10;6.13;;;9.10;99.90;;;;;;4774027;30;20058;-87
2022/01/19 12:44:53;;;;;;;21.88;5.35;;;9.30;99.90;;;;;;4788940;30;20130;-87
2022/01/19 12:47:25;;;;;;;21.45;6.22;;;7.80;99.90;;;;;;4789322;30;20063;-89
2022/01/19 12:49:54;;;;;;;15.70;5.53;;;8.60;99.90;;;;;;4787541;30;20054;-89
2022/01/19 12:52:23;;;;;;;19.75;5.50;;;7.60;99.90;;;;;;4804104;29;20408;-90
2022/01/19 12:54:50;;;;;;;33.35;5.57;;;7.20;99.90;;;;;;4789011;30;20568;-90
2022/01/19 12:57:16;;;;;;;24.13;5.60;;;6.70;99.90;;;;;;4789602;30;20408;-87
2022/01/19 12:59:46;;;;;;;28.92;6.28;;;7.10;99.90;;;;;;4788628;30;20055;-89
2022/01/19 13:02:15;;;;;;;27.27;5.60;;;7.90;99.90;;;;;;4789159;29;20059;-82
2022/01/19 13:04:46;;;;;;;25.13;7.50;;;7.20;99.90;;;;;;4787721;30;20051;-88
2022/01/19 13:07:21;;;;;;;33.97;7.05;;;9.00;99.90;;;;;;4773213;30;20051;-87
2022/01/19 13:10:37;;;;;;;16.40;5.18;;;7.50;99.90;;;;;;4779033;30;20051;-86
2022/01/19 13:13:14;;;;;;;21.48;5.30;;;6.90;99.90;;;;;;4788011;30;20065;-86
2022/01/19 13:15:42;;;;;;;16.13;5.30;;;6.50;99.90;;;;;;4771585;30;20083;-86
2022/01/19 13:18:10;;;;;;;20.20;6.32;;;7.70;99.90;;;;;;4787966;29;20047;-86
2022/01/19 13:20:36;;;;;;;24.85;6.38;;;6.90;99.90;;;;;;4787836;30;20055;-85
2022/01/19 13:23:04;;;;;;;24.30;6.00;;;6.60;99.90;;;;;;4787730;30;20113;-80
2022/01/19 13:25:33;;;;;;;25.85;5.88;;;5.90;99.90;;;;;;4802688;29;20055;-86
2022/01/19 13:28:01;;;;;;;28.95;7.63;;;6.30;99.90;;;;;;4787346;29;20090;-86
2022/01/19 13:30:32;;;;;;;34.60;7.22;;;6.40;99.90;;;;;;4783068;30;20475;-86
2022/01/19 13:33:09;;;;;;;50.58;8.23;;;7.20;99.90;;;;;;4798284;29;20062;-87
2022/01/19 13:35:35;;;;;;;40.55;8.77;;;7.10;99.90;;;;;;4770495;30;20047;-86
2022/01/19 13:38:09;;;;;;;38.38;7.97;;;7.80;99.90;;;;;;4775593;29;20121;-86
2022/01/19 13:40:35;;;;;;;36.80;8.73;;;7.20;99.90;;;;;;4772582;30;20531;-85
2022/01/19 13:43:04;;;;;;;43.75;7.80;;;6.60;99.90;;;;;;4786935;30;20047;-85
2022/01/19 13:45:48;;;;;;;40.38;8.25;;;8.30;99.90;;;;;;4787254;30;20079;-85
2022/01/19 13:50:44;;;;;;;40.95;9.70;;;7.20;99.90;;;;;;4805816;29;20069;-85
2022/01/19 13:53:10;;;;;;;43.85;10.73;;;7.00;99.90;;;;;;4783133;30;20051;-86
2022/01/19 13:55:36;;;;;;;44.75;9.45;;;7.10;99.90;;;;;;4802292;29;20055;-85
2022/01/19 13:58:04;;;;;;;50.25;11.57;;;7.80;99.90;;;;;;4788054;30;20043;-85
2022/01/19 14:00:30;;;;;;;36.17;9.68;;;7.90;99.90;;;;;;4770518;29;20085;-86
2022/01/19 14:03:02;;;;;;;42.88;12.48;;;9.70;99.90;;;;;;4797149;29;20210;-86
2022/01/19 14:05:36;;;;;;;55.47;12.98;;;7.60;99.90;;;;;;4772342;30;20117;-86
2022/01/19 14:08:02;;;;;;;60.15;14.55;;;6.20;99.90;;;;;;4788078;29;20728;-86